sensor_id;sensor_type;location;lat;lon;timestamp;pressure;altitude;pressure_sealevel;temperature;humidity
41078;BME280;26823;42.662;23.352;2023-03-05T00:01:25;94317.88;;;5.35;90.73
41078;BME280;26823;42.662;23.352;2023-03-05T00:03:53;94325.94;;;5.40;90.30
41078;BME280;26823;42.662;23.352;2023-03-05T00:06:20;94320.91;;;5.49;89.21
41078;BME280;26823;42.662;23.352;2023-03-05T00:08:47;94318.75;;;5.51;89.10
41078;BME280;26823;42.662;23.352;2023-03-05T00:11:13;94306.94;;;5.47;88.99
41078;BME280;26823;42.662;23.352;2023-03-05T00:13:39;94310.16;;;5.44;88.11
41078;BME280;26823;42.662;23.352;2023-03-05T00:16:07;94319.28;;;5.48;87.95
41078;BME280;26823;42.662;23.352;2023-03-05T00:18:33;94311.19;;;5.37;88.07
41078;BME280;26823;42.662;23.352;2023-03-05T00:20:59;94315.81;;;5.47;87.86
41078;BME280;26823;42.662;23.352;2023-03-05T00:23:24;94310.50;;;5.58;87.20
41078;BME280;26823;42.662;23.352;2023-03-05T00:25:50;94285.25;;;5.53;87.64
41078;BME280;26823;42.662;23.352;2023-03-05T00:28:15;94310.00;;;5.66;88.14
41078;BME280;26823;42.662;23.352;2023-03-05T00:30:41;94302.44;;;5.58;86.76
41078;BME280;26823;42.662;23.352;2023-03-05T00:33:07;94301.91;;;5.61;86.55
41078;BME280;26823;42.662;23.352;2023-03-05T00:35:40;94307.53;;;5.54;86.52
41078;BME280;26823;42.662;23.352;2023-03-05T00:38:06;94293.50;;;5.42;86.30
41078;BME280;26823;42.662;23.352;2023-03-05T00:40:41;94261.50;;;5.30;86.07
41078;BME280;26823;42.662;23.352;2023-03-05T00:43:07;94288.91;;;5.42;86.02
41078;BME280;26823;42.662;23.352;2023-03-05T00:45:33;94285.44;;;5.42;85.63
41078;BME280;26823;42.662;23.352;2023-03-05T00:47:58;94277.66;;;5.40;85.44
41078;BME280;26823;42.662;23.352;2023-03-05T00:50:24;94276.38;;;5.48;85.09
41078;BME280;26823;42.662;23.352;2023-03-05T00:52:50;94283.09;;;5.50;84.58
41078;BME280;26823;42.662;23.352;2023-03-05T00:55:16;94282.03;;;5.51;84.42
41078;BME280;26823;42.662;23.352;2023-03-05T00:57:41;94285.53;;;5.57;84.57
41078;BME280;26823;42.662;23.352;2023-03-05T01:00:07;94272.66;;;5.54;83.48
41078;BME280;26823;42.662;23.352;2023-03-05T01:02:33;94283.97;;;5.61;83.48
41078;BME280;26823;42.662;23.352;2023-03-05T01:04:58;94253.25;;;5.42;83.14
41078;BME280;26823;42.662;23.352;2023-03-05T01:07:24;94257.03;;;5.46;82.75
41078;BME280;26823;42.662;23.352;2023-03-05T01:09:49;94269.44;;;5.57;82.49
41078;BME280;26823;42.662;23.352;2023-03-05T01:12:14;94267.59;;;5.63;82.89
41078;BME280;26823;42.662;23.352;2023-03-05T01:14:40;94256.28;;;5.55;82.05
41078;BME280;26823;42.662;23.352;2023-03-05T01:17:06;94265.72;;;5.63;81.83
41078;BME280;26823;42.662;23.352;2023-03-05T01:19:32;94259.00;;;5.66;81.54
41078;BME280;26823;42.662;23.352;2023-03-05T01:21:58;94262.00;;;5.69;81.41
41078;BME280;26823;42.662;23.352;2023-03-05T01:24:23;94260.63;;;5.62;80.95
41078;BME280;26823;42.662;23.352;2023-03-05T01:26:49;94256.03;;;5.57;80.83
41078;BME280;26823;42.662;23.352;2023-03-05T01:29:14;94259.00;;;5.61;80.67
41078;BME280;26823;42.662;23.352;2023-03-05T01:31:40;94247.47;;;5.60;80.40
41078;BME280;26823;42.662;23.352;2023-03-05T01:34:05;94257.69;;;5.68;79.88
41078;BME280;26823;42.662;23.352;2023-03-05T01:36:31;94253.16;;;5.74;79.49
41078;BME280;26823;42.662;23.352;2023-03-05T01:38:57;94259.06;;;5.76;79.26
41078;BME280;26823;42.662;23.352;2023-03-05T01:41:22;94253.69;;;5.76;78.10
41078;BME280;26823;42.662;23.352;2023-03-05T01:43:48;94250.78;;;5.78;78.42
41078;BME280;26823;42.662;23.352;2023-03-05T01:48:52;94258.72;;;5.62;77.12
41078;BME280;26823;42.662;23.352;2023-03-05T01:51:21;94240.44;;;5.49;77.89
41078;BME280;26823;42.662;23.352;2023-03-05T01:53:48;94239.59;;;5.43;78.27
41078;BME280;26823;42.662;23.352;2023-03-05T01:56:15;94253.28;;;5.47;78.20
41078;BME280;26823;42.662;23.352;2023-03-05T01:58:41;94248.44;;;5.44;77.82
41078;BME280;26823;42.662;23.352;2023-03-05T02:01:06;94253.03;;;5.53;78.26
41078;BME280;26823;42.662;23.352;2023-03-05T02:03:32;94251.19;;;5.54;77.61
41078;BME280;26823;42.662;23.352;2023-03-05T02:05:58;94244.19;;;5.48;77.74
41078;BME280;26823;42.662;23.352;2023-03-05T02:08:24;94250.63;;;5.52;77.66
41078;BME280;26823;42.662;23.352;2023-03-05T02:10:54;94260.03;;;5.54;77.47
41078;BME280;26823;42.662;23.352;2023-03-05T02:13:30;94253.34;;;5.57;77.12
41078;BME280;26823;42.662;23.352;2023-03-05T02:15:58;94255.22;;;5.57;76.56
41078;BME280;26823;42.662;23.352;2023-03-05T02:18:24;94261.38;;;5.57;76.24
41078;BME280;26823;42.662;23.352;2023-03-05T02:20:52;94244.97;;;5.48;76.73
41078;BME280;26823;42.662;23.352;2023-03-05T02:23:23;94242.56;;;5.47;76.14
41078;BME280;26823;42.662;23.352;2023-03-05T02:25:49;94250.34;;;5.48;76.98
41078;BME280;26823;42.662;23.352;2023-03-05T02:31:12;94254.34;;;5.46;76.61
41078;BME280;26823;42.662;23.352;2023-03-05T02:33:38;94259.22;;;5.49;76.06
41078;BME280;26823;42.662;23.352;2023-03-05T02:36:04;94254.28;;;5.35;76.54
41078;BME280;26823;42.662;23.352;2023-03-05T02:38:30;94254.56;;;5.34;76.00
41078;BME280;26823;42.662;23.352;2023-03-05T02:40:55;94258.06;;;5.39;76.11
41078;BME280;26823;42.662;23.352;2023-03-05T02:43:21;94242.22;;;5.33;76.27
41078;BME280;26823;42.662;23.352;2023-03-05T02:45:46;94255.16;;;5.41;76.95
41078;BME280;26823;42.662;23.352;2023-03-05T02:48:12;94248.44;;;5.38;76.92
41078;BME280;26823;42.662;23.352;2023-03-05T02:50:37;94251.63;;;5.41;76.91
41078;BME280;26823;42.662;23.352;2023-03-05T02:53:04;94267.75;;;5.46;77.08
41078;BME280;26823;42.662;23.352;2023-03-05T02:55:30;94263.19;;;5.41;76.92
41078;BME280;26823;42.662;23.352;2023-03-05T02:57:56;94266.09;;;5.39;77.10
41078;BME280;26823;42.662;23.352;2023-03-05T03:00:21;94264.56;;;5.44;77.67
41078;BME280;26823;42.662;23.352;2023-03-05T03:02:47;94257.81;;;5.36;77.96
41078;BME280;26823;42.662;23.352;2023-03-05T03:05:12;94228.97;;;5.16;78.68
41078;BME280;26823;42.662;23.352;2023-03-05T03:07:37;94262.09;;;5.42;78.25
41078;BME280;26823;42.662;23.352;2023-03-05T03:10:04;94247.84;;;5.31;78.36
41078;BME280;26823;42.662;23.352;2023-03-05T03:12:30;94260.16;;;5.27;78.29
41078;BME280;26823;42.662;23.352;2023-03-05T03:14:55;94244.22;;;5.10;79.26
41078;BME280;26823;42.662;23.352;2023-03-05T03:17:20;94259.53;;;5.15;79.32
41078;BME280;26823;42.662;23.352;2023-03-05T03:19:46;94247.91;;;5.04;79.51
41078;BME280;26823;42.662;23.352;2023-03-05T03:22:14;94270.28;;;5.20;79.51
41078;BME280;26823;42.662;23.352;2023-03-05T03:24:42;94265.41;;;5.12;79.56
41078;BME280;26823;42.662;23.352;2023-03-05T03:27:09;94251.13;;;5.01;79.62
41078;BME280;26823;42.662;23.352;2023-03-05T03:29:36;94247.59;;;4.95;79.82
41078;BME280;26823;42.662;23.352;2023-03-05T03:32:01;94266.88;;;4.92;78.98
41078;BME280;26823;42.662;23.352;2023-03-05T03:34:27;94265.22;;;4.86;80.29
41078;BME280;26823;42.662;23.352;2023-03-05T03:36:52;94255.81;;;4.83;80.39
41078;BME280;26823;42.662;23.352;2023-03-05T03:39:19;94249.91;;;4.81;79.58
41078;BME280;26823;42.662;23.352;2023-03-05T03:41:47;94256.88;;;4.82;79.72
41078;BME280;26823;42.662;23.352;2023-03-05T03:44:13;94245.28;;;4.71;79.04
41078;BME280;26823;42.662;23.352;2023-03-05T03:46:41;94260.88;;;4.80;79.17
41078;BME280;26823;42.662;23.352;2023-03-05T03:49:14;94258.47;;;4.78;80.03
41078;BME280;26823;42.662;23.352;2023-03-05T03:51:40;94248.25;;;4.75;79.66
41078;BME280;26823;42.662;23.352;2023-03-05T03:54:05;94265.69;;;4.78;79.78
41078;BME280;26823;42.662;23.352;2023-03-05T03:56:31;94256.03;;;4.77;79.97
41078;BME280;26823;42.662;23.352;2023-03-05T03:58:56;94269.09;;;4.68;79.27
41078;BME280;26823;42.662;23.352;2023-03-05T04:01:21;94265.06;;;4.65;79.76
41078;BME280;26823;42.662;23.352;2023-03-05T04:03:47;94251.91;;;4.64;79.26
41078;BME280;26823;42.662;23.352;2023-03-05T04:06:13;94269.59;;;4.65;79.44
41078;BME280;26823;42.662;23.352;2023-03-05T04:08:39;94273.94;;;4.71;80.07
41078;BME280;26823;42.662;23.352;2023-03-05T04:11:04;94268.97;;;4.52;80.44
41078;BME280;26823;42.662;23.352;2023-03-05T04:13:30;94256.00;;;4.44;80.20
41078;BME280;26823;42.662;23.352;2023-03-05T04:15:55;94265.09;;;4.43;80.82
41078;BME280;26823;42.662;23.352;2023-03-05T04:18:21;94273.78;;;4.55;80.56
41078;BME280;26823;42.662;23.352;2023-03-05T04:20:47;94279.66;;;4.52;80.98
41078;BME280;26823;42.662;23.352;2023-03-05T04:23:12;94250.09;;;4.42;81.62
41078;BME280;26823;42.662;23.352;2023-03-05T04:25:38;94270.09;;;4.62;81.04
41078;BME280;26823;42.662;23.352;2023-03-05T04:28:04;94266.81;;;4.54;81.79
41078;BME280;26823;42.662;23.352;2023-03-05T04:30:29;94266.50;;;4.51;80.47
41078;BME280;26823;42.662;23.352;2023-03-05T04:32:55;94263.00;;;4.45;80.75
41078;BME280;26823;42.662;23.352;2023-03-05T04:35:21;94267.94;;;4.59;79.49
41078;BME280;26823;42.662;23.352;2023-03-05T04:37:47;94259.22;;;4.41;78.70
41078;BME280;26823;42.662;23.352;2023-03-05T04:40:12;94265.66;;;4.45;78.94
41078;BME280;26823;42.662;23.352;2023-03-05T04:42:38;94234.94;;;4.25;79.20
41078;BME280;26823;42.662;23.352;2023-03-05T04:45:04;94266.16;;;4.42;79.44
41078;BME280;26823;42.662;23.352;2023-03-05T04:47:31;94259.44;;;4.39;79.85
41078;BME280;26823;42.662;23.352;2023-03-05T04:49:57;94261.88;;;4.41;79.50
41078;BME280;26823;42.662;23.352;2023-03-05T04:52:22;94256.97;;;4.33;79.91
41078;BME280;26823;42.662;23.352;2023-03-05T04:54:48;94247.56;;;4.30;80.32
41078;BME280;26823;42.662;23.352;2023-03-05T04:57:13;94214.97;;;4.06;79.70
41078;BME280;26823;42.662;23.352;2023-03-05T04:59:39;94250.22;;;4.25;79.90
41078;BME280;26823;42.662;23.352;2023-03-05T05:02:04;94259.13;;;4.31;80.51
41078;BME280;26823;42.662;23.352;2023-03-05T05:04:30;94259.69;;;4.38;79.72
41078;BME280;26823;42.662;23.352;2023-03-05T05:06:56;94264.78;;;4.39;79.61
41078;BME280;26823;42.662;23.352;2023-03-05T05:09:23;94263.75;;;4.40;79.97
41078;BME280;26823;42.662;23.352;2023-03-05T05:11:49;94258.28;;;4.30;80.15
41078;BME280;26823;42.662;23.352;2023-03-05T05:14:14;94255.00;;;4.23;79.99
41078;BME280;26823;42.662;23.352;2023-03-05T05:16:40;94256.56;;;4.19;79.49
41078;BME280;26823;42.662;23.352;2023-03-05T05:19:06;94269.22;;;4.23;79.72
41078;BME280;26823;42.662;23.352;2023-03-05T05:21:32;94262.28;;;4.28;79.80
41078;BME280;26823;42.662;23.352;2023-03-05T05:23:58;94257.09;;;4.16;78.54
41078;BME280;26823;42.662;23.352;2023-03-05T05:26:23;94269.41;;;4.17;78.67
41078;BME280;26823;42.662;23.352;2023-03-05T05:28:49;94248.19;;;4.10;78.70
41078;BME280;26823;42.662;23.352;2023-03-05T05:31:15;94275.34;;;4.24;77.98
41078;BME280;26823;42.662;23.352;2023-03-05T05:33:41;94256.09;;;4.22;78.04
41078;BME280;26823;42.662;23.352;2023-03-05T05:36:09;94274.41;;;4.35;77.24
41078;BME280;26823;42.662;23.352;2023-03-05T05:38:36;94267.69;;;4.33;77.00
41078;BME280;26823;42.662;23.352;2023-03-05T05:41:07;94276.88;;;4.42;76.68
41078;BME280;26823;42.662;23.352;2023-03-05T05:43:33;94277.19;;;4.46;76.42
41078;BME280;26823;42.662;23.352;2023-03-05T05:46:00;94263.56;;;4.47;76.51
41078;BME280;26823;42.662;23.352;2023-03-05T05:48:28;94276.16;;;4.52;75.50
41078;BME280;26823;42.662;23.352;2023-03-05T05:50:53;94277.22;;;4.51;75.01
41078;BME280;26823;42.662;23.352;2023-03-05T05:53:19;94270.81;;;4.52;74.94
41078;BME280;26823;42.662;23.352;2023-03-05T05:55:44;94267.38;;;4.56;74.08
41078;BME280;26823;42.662;23.352;2023-03-05T05:58:10;94289.47;;;4.69;73.89
41078;BME280;26823;42.662;23.352;2023-03-05T06:00:35;94283.84;;;4.70;73.49
41078;BME280;26823;42.662;23.352;2023-03-05T06:03:00;94279.53;;;4.69;72.85
41078;BME280;26823;42.662;23.352;2023-03-05T06:05:26;94296.81;;;4.84;72.62
41078;BME280;26823;42.662;23.352;2023-03-05T06:07:51;94227.31;;;4.39;71.98
41078;BME280;26823;42.662;23.352;2023-03-05T06:10:17;94290.91;;;4.82;71.57
41078;BME280;26823;42.662;23.352;2023-03-05T06:12:48;94291.78;;;4.93;70.99
41078;BME280;26823;42.662;23.352;2023-03-05T06:15:14;94289.97;;;4.98;70.33
41078;BME280;26823;42.662;23.352;2023-03-05T06:17:39;94295.38;;;5.03;70.23
41078;BME280;26823;42.662;23.352;2023-03-05T06:20:05;94294.88;;;5.12;69.29
41078;BME280;26823;42.662;23.352;2023-03-05T06:22:34;94303.19;;;5.10;68.57
41078;BME280;26823;42.662;23.352;2023-03-05T06:24:59;94263.44;;;4.97;68.95
41078;BME280;26823;42.662;23.352;2023-03-05T06:27:25;94298.28;;;5.39;68.69
41078;BME280;26823;42.662;23.352;2023-03-05T06:29:52;94309.88;;;5.45;67.23
41078;BME280;26823;42.662;23.352;2023-03-05T06:32:17;94308.78;;;5.41;66.80
41078;BME280;26823;42.662;23.352;2023-03-05T06:34:43;94289.09;;;5.25;66.53
41078;BME280;26823;42.662;23.352;2023-03-05T06:37:08;94259.94;;;4.96;66.94
41078;BME280;26823;42.662;23.352;2023-03-05T06:39:33;94292.84;;;5.24;65.80
41078;BME280;26823;42.662;23.352;2023-03-05T06:41:59;94300.13;;;5.29;65.16
41078;BME280;26823;42.662;23.352;2023-03-05T06:44:24;94313.66;;;5.49;66.09
41078;BME280;26823;42.662;23.352;2023-03-05T06:46:50;94311.28;;;5.58;64.89
41078;BME280;26823;42.662;23.352;2023-03-05T06:49:15;94301.94;;;5.66;65.60
41078;BME280;26823;42.662;23.352;2023-03-05T06:51:40;94316.75;;;5.74;63.36
41078;BME280;26823;42.662;23.352;2023-03-05T06:54:09;94302.81;;;5.77;62.86
41078;BME280;26823;42.662;23.352;2023-03-05T06:56:36;94314.78;;;6.07;63.73
41078;BME280;26823;42.662;23.352;2023-03-05T06:59:03;94311.63;;;6.25;62.12
41078;BME280;26823;42.662;23.352;2023-03-05T07:01:29;94316.53;;;6.44;59.83
41078;BME280;26823;42.662;23.352;2023-03-05T07:03:54;94314.41;;;6.56;58.66
41078;BME280;26823;42.662;23.352;2023-03-05T07:06:23;94312.28;;;6.63;59.02
41078;BME280;26823;42.662;23.352;2023-03-05T07:08:49;94312.34;;;6.94;58.52
41078;BME280;26823;42.662;23.352;2023-03-05T07:11:16;94323.88;;;7.62;56.10
41078;BME280;26823;42.662;23.352;2023-03-05T07:13:42;94316.41;;;8.29;54.29
41078;BME280;26823;42.662;23.352;2023-03-05T07:16:11;94310.84;;;8.71;52.65
41078;BME280;26823;42.662;23.352;2023-03-05T07:18:37;94313.84;;;8.64;50.58
41078;BME280;26823;42.662;23.352;2023-03-05T07:21:04;94318.84;;;8.31;51.92
41078;BME280;26823;42.662;23.352;2023-03-05T07:23:31;94317.97;;;8.46;51.07
41078;BME280;26823;42.662;23.352;2023-03-05T07:26:03;94325.78;;;8.53;50.41
41078;BME280;26823;42.662;23.352;2023-03-05T07:28:29;94282.56;;;8.03;51.88
41078;BME280;26823;42.662;23.352;2023-03-05T07:30:59;94317.16;;;8.45;51.11
41078;BME280;26823;42.662;23.352;2023-03-05T07:33:25;94318.09;;;8.70;50.55
41078;BME280;26823;42.662;23.352;2023-03-05T07:35:51;94325.44;;;9.04;50.45
41078;BME280;26823;42.662;23.352;2023-03-05T07:38:16;94314.19;;;8.47;50.78
41078;BME280;26823;42.662;23.352;2023-03-05T07:40:42;94312.03;;;8.49;50.47
41078;BME280;26823;42.662;23.352;2023-03-05T07:43:07;94306.38;;;8.51;51.78
41078;BME280;26823;42.662;23.352;2023-03-05T07:45:33;94316.78;;;8.73;50.67
41078;BME280;26823;42.662;23.352;2023-03-05T07:47:58;94323.16;;;8.22;52.48
41078;BME280;26823;42.662;23.352;2023-03-05T07:50:24;94309.81;;;7.91;53.34
41078;BME280;26823;42.662;23.352;2023-03-05T07:52:49;94315.72;;;8.03;54.22
41078;BME280;26823;42.662;23.352;2023-03-05T07:55:14;94299.31;;;7.94;53.99
41078;BME280;26823;42.662;23.352;2023-03-05T07:57:40;94330.78;;;7.99;53.58
41078;BME280;26823;42.662;23.352;2023-03-05T08:00:06;94326.31;;;7.48;56.25
41078;BME280;26823;42.662;23.352;2023-03-05T08:02:32;94322.81;;;7.11;56.64
41078;BME280;26823;42.662;23.352;2023-03-05T08:04:57;94316.63;;;7.42;56.00
41078;BME280;26823;42.662;23.352;2023-03-05T08:07:23;94317.16;;;7.13;57.85
41078;BME280;26823;42.662;23.352;2023-03-05T08:09:48;94319.31;;;6.90;57.60
41078;BME280;26823;42.662;23.352;2023-03-05T08:12:13;94312.34;;;6.99;58.58
41078;BME280;26823;42.662;23.352;2023-03-05T08:14:39;94319.06;;;7.02;59.72
41078;BME280;26823;42.662;23.352;2023-03-05T08:17:05;94313.97;;;7.21;57.99
41078;BME280;26823;42.662;23.352;2023-03-05T08:19:31;94325.22;;;7.23;58.95
41078;BME280;26823;42.662;23.352;2023-03-05T08:21:57;94319.59;;;7.35;59.38
41078;BME280;26823;42.662;23.352;2023-03-05T08:24:22;94313.97;;;7.21;59.13
41078;BME280;26823;42.662;23.352;2023-03-05T08:26:54;94315.56;;;7.27;60.43
41078;BME280;26823;42.662;23.352;2023-03-05T08:29:20;94321.47;;;6.88;59.35
41078;BME280;26823;42.662;23.352;2023-03-05T08:31:45;94325.22;;;6.87;60.40
41078;BME280;26823;42.662;23.352;2023-03-05T08:34:11;94316.09;;;7.04;61.43
41078;BME280;26823;42.662;23.352;2023-03-05T08:36:37;94304.50;;;6.77;59.89
41078;BME280;26823;42.662;23.352;2023-03-05T08:39:02;94305.56;;;6.76;59.92
41078;BME280;26823;42.662;23.352;2023-03-05T08:41:31;94308.81;;;6.99;60.17
41078;BME280;26823;42.662;23.352;2023-03-05T08:43:57;94309.09;;;7.18;60.21
41078;BME280;26823;42.662;23.352;2023-03-05T08:46:22;94307.47;;;6.91;60.34
41078;BME280;26823;42.662;23.352;2023-03-05T08:48:48;94309.66;;;6.89;60.75
41078;BME280;26823;42.662;23.352;2023-03-05T08:51:15;94305.34;;;6.93;60.61
41078;BME280;26823;42.662;23.352;2023-03-05T08:53:42;94307.47;;;7.12;60.86
41078;BME280;26823;42.662;23.352;2023-03-05T08:56:08;94303.44;;;6.94;60.41
41078;BME280;26823;42.662;23.352;2023-03-05T08:58:34;94284.38;;;7.06;60.40
41078;BME280;26823;42.662;23.352;2023-03-05T09:00:59;94280.34;;;7.18;58.63
41078;BME280;26823;42.662;23.352;2023-03-05T09:03:25;94277.91;;;7.27;57.79
41078;BME280;26823;42.662;23.352;2023-03-05T09:05:51;94288.88;;;7.62;56.80
41078;BME280;26823;42.662;23.352;2023-03-05T09:08:17;94274.63;;;7.61;57.22
41078;BME280;26823;42.662;23.352;2023-03-05T09:10:43;94266.53;;;7.72;55.66
41078;BME280;26823;42.662;23.352;2023-03-05T09:13:10;94265.63;;;7.97;55.01
41078;BME280;26823;42.662;23.352;2023-03-05T09:15:36;94276.66;;;7.95;56.34
41078;BME280;26823;42.662;23.352;2023-03-05T09:18:01;94271.53;;;7.99;53.74
41078;BME280;26823;42.662;23.352;2023-03-05T09:20:27;94275.53;;;8.07;53.74
41078;BME280;26823;42.662;23.352;2023-03-05T09:22:53;94276.84;;;8.25;53.00
41078;BME280;26823;42.662;23.352;2023-03-05T09:25:19;94265.19;;;8.35;52.22
41078;BME280;26823;42.662;23.352;2023-03-05T09:27:44;94275.47;;;8.27;52.99
41078;BME280;26823;42.662;23.352;2023-03-05T09:30:11;94272.22;;;8.25;51.98
41078;BME280;26823;42.662;23.352;2023-03-05T09:32:37;94272.16;;;8.41;49.74
41078;BME280;26823;42.662;23.352;2023-03-05T09:35:02;94272.59;;;8.08;49.45
41078;BME280;26823;42.662;23.352;2023-03-05T09:37:28;94254.28;;;8.05;50.94
41078;BME280;26823;42.662;23.352;2023-03-05T09:39:54;94268.69;;;8.35;50.74
41078;BME280;26823;42.662;23.352;2023-03-05T09:42:26;94267.34;;;8.38;49.99
41078;BME280;26823;42.662;23.352;2023-03-05T09:48:37;94248.97;;;8.50;49.33
41078;BME280;26823;42.662;23.352;2023-03-05T09:51:03;94251.06;;;8.58;47.80
41078;BME280;26823;42.662;23.352;2023-03-05T09:53:47;94249.13;;;8.69;48.84
41078;BME280;26823;42.662;23.352;2023-03-05T09:56:18;94257.28;;;8.54;47.19
41078;BME280;26823;42.662;23.352;2023-03-05T09:58:58;94252.56;;;8.75;46.88
41078;BME280;26823;42.662;23.352;2023-03-05T10:01:37;94235.75;;;8.48;46.73
41078;BME280;26823;42.662;23.352;2023-03-05T10:04:12;94224.72;;;8.40;45.41
41078;BME280;26823;42.662;23.352;2023-03-05T10:07:31;94240.22;;;8.69;45.66
41078;BME280;26823;42.662;23.352;2023-03-05T10:10:17;94240.13;;;8.79;46.04
41078;BME280;26823;42.662;23.352;2023-03-05T10:13:22;94235.41;;;9.29;44.79
41078;BME280;26823;42.662;23.352;2023-03-05T10:16:04;94233.53;;;9.30;44.39
41078;BME280;26823;42.662;23.352;2023-03-05T10:18:45;94229.91;;;9.40;45.16
41078;BME280;26823;42.662;23.352;2023-03-05T10:21:35;94200.06;;;9.26;44.23
41078;BME280;26823;42.662;23.352;2023-03-05T10:24:30;94204.16;;;9.23;44.56
41078;BME280;26823;42.662;23.352;2023-03-05T10:27:07;94193.47;;;9.42;44.02
41078;BME280;26823;42.662;23.352;2023-03-05T10:45:32;94169.94;;;10.87;40.60
41078;BME280;26823;42.662;23.352;2023-03-05T10:50:54;94171.84;;;11.33;38.06
41078;BME280;26823;42.662;23.352;2023-03-05T10:53:34;94171.16;;;10.62;39.36
41078;BME280;26823;42.662;23.352;2023-03-05T10:56:05;94167.47;;;10.52;40.28
41078;BME280;26823;42.662;23.352;2023-03-05T10:58:31;94156.72;;;10.09;39.76
41078;BME280;26823;42.662;23.352;2023-03-05T11:03:22;94144.94;;;10.43;39.87
41078;BME280;26823;42.662;23.352;2023-03-05T11:05:52;94149.34;;;10.72;39.93
41078;BME280;26823;42.662;23.352;2023-03-05T11:13:27;94136.91;;;10.38;40.72
41078;BME280;26823;42.662;23.352;2023-03-05T11:16:09;94132.94;;;10.49;40.07
41078;BME280;26823;42.662;23.352;2023-03-05T11:18:38;94125.78;;;10.39;40.13
41078;BME280;26823;42.662;23.352;2023-03-05T11:21:09;94118.72;;;10.57;40.33
41078;BME280;26823;42.662;23.352;2023-03-05T11:23:35;94120.59;;;10.76;40.50
41078;BME280;26823;42.662;23.352;2023-03-05T11:28:39;94127.19;;;10.70;40.38
41078;BME280;26823;42.662;23.352;2023-03-05T11:39:14;94098.88;;;10.29;40.41
41078;BME280;26823;42.662;23.352;2023-03-05T11:41:49;94102.84;;;9.99;41.33
41078;BME280;26823;42.662;23.352;2023-03-05T11:46:50;94107.97;;;9.57;42.13
41078;BME280;26823;42.662;23.352;2023-03-05T11:49:23;94078.13;;;9.48;43.04
41078;BME280;26823;42.662;23.352;2023-03-05T11:52:11;94091.56;;;9.72;42.98
41078;BME280;26823;42.662;23.352;2023-03-05T11:57:13;94086.72;;;9.93;42.55
41078;BME280;26823;42.662;23.352;2023-03-05T11:59:40;94062.25;;;10.04;42.53
41078;BME280;26823;42.662;23.352;2023-03-05T12:02:16;94055.81;;;10.19;41.45
41078;BME280;26823;42.662;23.352;2023-03-05T12:04:43;94063.44;;;10.50;40.81
41078;BME280;26823;42.662;23.352;2023-03-05T12:07:11;94069.44;;;10.80;41.64
41078;BME280;26823;42.662;23.352;2023-03-05T12:09:39;94062.72;;;10.77;39.98
41078;BME280;26823;42.662;23.352;2023-03-05T12:12:11;94059.63;;;11.12;40.32
41078;BME280;26823;42.662;23.352;2023-03-05T12:14:57;94040.94;;;11.66;40.00
41078;BME280;26823;42.662;23.352;2023-03-05T12:18:06;94052.50;;;12.31;38.21
41078;BME280;26823;42.662;23.352;2023-03-05T12:23:13;94050.91;;;11.56;37.21
41078;BME280;26823;42.662;23.352;2023-03-05T12:25:50;94051.00;;;11.37;37.77
41078;BME280;26823;42.662;23.352;2023-03-05T12:31:28;94050.78;;;11.62;37.64
41078;BME280;26823;42.662;23.352;2023-03-05T12:33:58;94024.31;;;11.45;38.99
41078;BME280;26823;42.662;23.352;2023-03-05T12:46:34;94021.34;;;11.18;39.31
41078;BME280;26823;42.662;23.352;2023-03-05T12:51:52;93984.47;;;10.95;40.08
41078;BME280;26823;42.662;23.352;2023-03-05T12:56:57;94024.22;;;11.50;38.78
41078;BME280;26823;42.662;23.352;2023-03-05T12:59:28;94009.72;;;11.32;38.99
41078;BME280;26823;42.662;23.352;2023-03-05T13:01:56;94005.47;;;11.39;38.49
41078;BME280;26823;42.662;23.352;2023-03-05T13:04:29;94009.09;;;10.93;39.30
41078;BME280;26823;42.662;23.352;2023-03-05T13:07:03;94019.91;;;10.79;40.28
41078;BME280;26823;42.662;23.352;2023-03-05T13:09:31;94007.41;;;10.69;40.29
41078;BME280;26823;42.662;23.352;2023-03-05T13:11:58;94017.25;;;10.46;40.79
41078;BME280;26823;42.662;23.352;2023-03-05T13:20:40;94010.75;;;10.14;42.07
41078;BME280;26823;42.662;23.352;2023-03-05T13:25:32;94004.44;;;9.67;42.28
41078;BME280;26823;42.662;23.352;2023-03-05T13:28:02;93995.97;;;9.54;42.32
41078;BME280;26823;42.662;23.352;2023-03-05T13:30:30;93976.34;;;9.49;42.56
41078;BME280;26823;42.662;23.352;2023-03-05T13:33:02;93991.88;;;9.76;42.63
41078;BME280;26823;42.662;23.352;2023-03-05T13:35:29;94005.31;;;9.62;42.07
41078;BME280;26823;42.662;23.352;2023-03-05T13:37:55;93968.53;;;9.28;42.68
41078;BME280;26823;42.662;23.352;2023-03-05T13:40:24;94000.78;;;9.57;42.55
41078;BME280;26823;42.662;23.352;2023-03-05T13:42:50;94008.97;;;9.52;42.62
41078;BME280;26823;42.662;23.352;2023-03-05T13:50:25;94003.84;;;9.70;42.00
41078;BME280;26823;42.662;23.352;2023-03-05T13:52:51;93994.06;;;9.74;42.76
41078;BME280;26823;42.662;23.352;2023-03-05T13:55:17;94007.34;;;9.89;42.42
41078;BME280;26823;42.662;23.352;2023-03-05T13:57:48;93997.66;;;9.50;41.90
41078;BME280;26823;42.662;23.352;2023-03-05T14:02:54;94004.28;;;9.39;43.02
41078;BME280;26823;42.662;23.352;2023-03-05T14:05:20;93997.00;;;9.39;43.30
41078;BME280;26823;42.662;23.352;2023-03-05T14:07:50;94000.47;;;9.40;44.26
41078;BME280;26823;42.662;23.352;2023-03-05T14:10:39;94002.63;;;9.43;42.98
41078;BME280;26823;42.662;23.352;2023-03-05T14:13:16;94000.13;;;9.46;43.69
41078;BME280;26823;42.662;23.352;2023-03-05T14:18:32;93992.53;;;9.68;42.99
41078;BME280;26823;42.662;23.352;2023-03-05T14:21:05;93998.53;;;9.65;42.74
41078;BME280;26823;42.662;23.352;2023-03-05T14:23:35;93998.97;;;9.72;42.50
41078;BME280;26823;42.662;23.352;2023-03-05T14:28:52;94000.22;;;9.41;43.06
41078;BME280;26823;42.662;23.352;2023-03-05T14:31:19;93994.88;;;9.17;42.87
41078;BME280;26823;42.662;23.352;2023-03-05T14:33:46;93969.50;;;8.94;42.49
41078;BME280;26823;42.662;23.352;2023-03-05T14:36:12;93997.50;;;8.98;43.19
41078;BME280;26823;42.662;23.352;2023-03-05T14:38:40;93998.28;;;8.79;43.07